createdAt,value
2022-10-13T00:04:16.392Z,8.15
2022-10-13T00:09:18.094Z,8.68
2022-10-13T00:14:19.692Z,8.38
2022-10-13T00:19:21.412Z,9.35
2022-10-13T00:24:23.126Z,8.70
2022-10-13T00:29:25.101Z,9.18
2022-10-13T00:34:26.703Z,9.23
2022-10-13T00:39:28.391Z,8.20
2022-10-13T00:44:57.862Z,8.82
2022-10-13T00:50:00.120Z,8.15
2022-10-13T00:55:03.152Z,8.80
2022-10-13T01:00:07.088Z,8.82
2022-10-13T01:05:08.980Z,10.05
2022-10-13T01:10:10.634Z,9.88
2022-10-13T01:15:39.695Z,8.10
2022-10-13T01:20:55.461Z,9.20
2022-10-13T01:26:10.087Z,9.63
2022-10-13T01:31:23.822Z,9.73
2022-10-13T01:36:36.932Z,9.20
2022-10-13T01:41:42.111Z,8.98
2022-10-13T01:46:45.193Z,9.63
2022-10-13T01:51:48.298Z,9.68
2022-10-13T01:56:54.579Z,10.13
2022-10-13T02:02:25.032Z,10.18
2022-10-13T02:07:46.246Z,9.90
2022-10-13T02:13:00.629Z,10.40
2022-10-13T02:18:04.349Z,10.68
2022-10-13T02:23:12.567Z,10.68
2022-10-13T02:28:15.445Z,9.13
2022-10-13T02:33:17.525Z,8.73
2022-10-13T02:38:19.209Z,9.02
2022-10-13T02:43:20.902Z,9.65
2022-10-13T02:48:22.680Z,9.18
2022-10-13T02:53:25.579Z,9.30
2022-10-13T02:58:28.182Z,9.60
2022-10-13T03:03:30.607Z,9.77
2022-10-13T03:08:33.763Z,10.63
2022-10-13T03:13:37.146Z,11.65
2022-10-13T03:18:41.156Z,12.50
2022-10-13T03:23:42.784Z,13.23
2022-10-13T03:28:49.294Z,13.23
2022-10-13T03:33:51.657Z,13.13
2022-10-13T03:38:53.217Z,13.90
2022-10-13T03:43:55.205Z,13.77
2022-10-13T03:48:56.826Z,14.45
2022-10-13T03:53:58.709Z,14.15
2022-10-13T03:59:01.067Z,14.63
2022-10-13T04:04:03.318Z,14.07
2022-10-13T04:09:05.572Z,14.30
2022-10-13T04:14:07.502Z,13.77
2022-10-13T04:19:12.483Z,14.00
2022-10-13T04:24:14.999Z,14.68
2022-10-13T04:29:16.672Z,14.05
2022-10-13T04:34:18.423Z,14.05
2022-10-13T04:39:20.052Z,15.25
2022-10-13T04:44:23.894Z,15.13
2022-10-13T04:49:25.602Z,14.77
2022-10-13T04:54:27.307Z,14.63
2022-10-13T04:59:29.212Z,14.65
2022-10-13T05:04:30.868Z,14.07
2022-10-13T05:09:32.457Z,14.85
2022-10-13T05:14:35.063Z,15.30
2022-10-13T05:19:38.334Z,15.68
2022-10-13T05:24:40.863Z,15.60
2022-10-13T05:29:42.798Z,15.23
2022-10-13T05:34:44.368Z,15.30
2022-10-13T05:39:48.884Z,15.20
2022-10-13T05:44:51.295Z,15.15
2022-10-13T05:49:52.949Z,15.32
2022-10-13T05:54:58.811Z,15.55
2022-10-13T06:00:04.763Z,16.60
2022-10-13T06:05:17.554Z,16.08
2022-10-13T06:10:19.379Z,16.30
2022-10-13T06:15:25.656Z,16.40
2022-10-13T06:20:31.171Z,16.45
2022-10-13T06:25:32.843Z,16.70
2022-10-13T06:30:34.487Z,15.93
2022-10-13T06:35:36.508Z,16.45
2022-10-13T06:40:38.207Z,16.25
2022-10-13T06:45:40.095Z,15.90
2022-10-13T06:50:42.974Z,15.55
2022-10-13T06:55:47.100Z,15.75
2022-10-13T07:00:52.105Z,14.27
2022-10-13T07:05:53.895Z,13.77
2022-10-13T07:10:55.604Z,13.27
2022-10-13T07:15:57.252Z,11.48
2022-10-13T07:21:00.081Z,11.55
2022-10-13T07:26:01.877Z,12.73
2022-10-13T07:31:13.616Z,12.60
2022-10-13T07:36:15.243Z,12.93
2022-10-13T07:41:17.123Z,12.68
2022-10-13T07:46:18.707Z,12.00
2022-10-13T07:51:21.678Z,13.13
2022-10-13T07:56:23.380Z,12.60
2022-10-13T08:01:25.072Z,12.27
2022-10-13T08:06:26.903Z,10.60
2022-10-13T08:11:32.801Z,11.38
2022-10-13T08:16:34.376Z,10.82
2022-10-13T08:21:57.441Z,9.52
2022-10-13T08:26:58.893Z,10.40
2022-10-13T08:32:00.774Z,10.95
2022-10-13T08:37:02.791Z,10.63
2022-10-13T08:42:14.610Z,11.75
2022-10-13T08:47:38.720Z,10.38
2022-10-13T08:53:05.136Z,9.10
2022-10-13T08:58:25.588Z,9.95
2022-10-13T09:03:29.626Z,8.52
2022-10-13T09:08:39.711Z,11.02
2022-10-13T09:13:41.398Z,8.80
2022-10-13T09:18:43.126Z,8.05
2022-10-13T09:23:54.230Z,9.43
2022-10-13T09:28:56.054Z,7.22
2022-10-13T09:34:09.209Z,8.40
2022-10-13T09:39:16.029Z,4.30
2022-10-13T09:44:31.994Z,4.15
2022-10-13T09:49:39.773Z,3.28
2022-10-13T09:54:51.507Z,5.18
2022-10-13T10:00:12.676Z,4.35
2022-10-13T10:05:44.769Z,2.97
2022-10-13T10:10:47.490Z,3.67
2022-10-13T10:15:57.926Z,3.60
2022-10-13T10:21:12.163Z,2.00
2022-10-13T10:26:32.367Z,2.60
2022-10-13T10:31:53.017Z,2.67
2022-10-13T10:42:42.947Z,3.20
2022-10-13T10:47:49.415Z,6.00
2022-10-13T10:53:03.045Z,3.40
2022-10-13T10:58:10.762Z,1.00
2022-10-13T11:03:49.850Z,1.63
2022-10-13T11:08:52.045Z,3.90
2022-10-13T11:13:58.434Z,1.75
2022-10-13T11:19:09.143Z,2.78
2022-10-13T11:24:33.715Z,1.83
2022-10-13T11:29:44.832Z,2.80
2022-10-13T11:35:06.678Z,3.63
2022-10-13T11:40:08.445Z,1.70
2022-10-13T11:45:34.704Z,1.45
2022-10-13T11:50:57.670Z,1.38
2022-10-13T11:56:03.592Z,2.70
2022-10-13T12:01:11.664Z,3.53
2022-10-13T12:06:16.069Z,2.05
2022-10-13T12:11:26.764Z,2.00
2022-10-13T12:16:29.502Z,3.15
2022-10-13T12:21:31.369Z,2.90
2022-10-13T12:26:33.057Z,2.30
2022-10-13T12:31:46.586Z,3.30
2022-10-13T12:37:28.494Z,3.42
2022-10-13T12:42:36.210Z,3.20
2022-10-13T12:47:39.432Z,3.30
2022-10-13T12:52:41.134Z,3.88
2022-10-13T12:57:45.738Z,3.30
2022-10-13T13:02:53.836Z,3.10
2022-10-13T13:07:55.535Z,3.30
2022-10-13T13:13:14.024Z,2.30
2022-10-13T13:18:32.092Z,1.98
2022-10-13T13:23:35.408Z,2.15
2022-10-13T13:28:38.369Z,2.97
2022-10-13T13:33:40.474Z,2.47
2022-10-13T13:38:42.198Z,2.25
2022-10-13T13:43:45.092Z,2.58
2022-10-13T13:48:46.641Z,3.20
2022-10-13T13:53:48.402Z,3.88
2022-10-13T13:58:50.117Z,6.15
2022-10-13T14:03:51.934Z,5.13
2022-10-13T14:08:53.537Z,2.20
2022-10-13T14:13:57.980Z,3.97
2022-10-13T14:19:02.123Z,1.95
2022-10-13T14:24:04.492Z,2.03
2022-10-13T14:29:06.314Z,4.82
2022-10-13T14:34:08.162Z,3.05
2022-10-13T14:39:10.431Z,4.60
2022-10-13T14:44:13.870Z,3.13
2022-10-13T14:49:19.883Z,2.80
2022-10-13T14:54:23.407Z,3.58
2022-10-13T14:59:25.279Z,3.85
2022-10-13T15:04:26.871Z,2.67
2022-10-13T15:09:38.939Z,3.00
2022-10-13T15:14:50.867Z,3.30
2022-10-13T15:19:52.478Z,1.40
2022-10-13T15:24:54.150Z,1.83
2022-10-13T15:29:55.763Z,1.60
2022-10-13T15:34:57.589Z,1.45
2022-10-13T15:39:59.962Z,2.25
2022-10-13T15:45:10.444Z,3.95
2022-10-13T15:50:12.660Z,2.10
2022-10-13T15:55:14.539Z,2.00
2022-10-13T16:00:16.916Z,4.00
2022-10-13T16:05:19.345Z,1.73
2022-10-13T16:10:20.931Z,1.70
2022-10-13T16:15:23.683Z,1.77
2022-10-13T16:20:25.351Z,2.75
2022-10-13T16:25:27.318Z,3.20
2022-10-13T16:30:30.470Z,2.95
2022-10-13T16:35:32.207Z,3.25
2022-10-13T16:40:33.864Z,3.75
2022-10-13T16:45:55.503Z,3.58
2022-10-13T16:51:00.453Z,7.95
2022-10-13T16:56:06.327Z,13.38
2022-10-13T17:01:10.099Z,11.32
2022-10-13T17:06:13.959Z,7.45
2022-10-13T17:11:21.754Z,8.45
2022-10-13T17:16:24.352Z,7.07
2022-10-13T17:21:25.989Z,6.57
2022-10-13T17:26:27.611Z,6.32
2022-10-13T17:31:29.420Z,6.90
2022-10-13T17:36:36.899Z,7.22
2022-10-13T17:41:44.423Z,10.43
2022-10-13T17:46:47.780Z,7.63
2022-10-13T17:51:52.312Z,6.85
2022-10-13T17:56:55.254Z,7.95
2022-10-13T18:01:57.025Z,5.93
2022-10-13T18:06:58.664Z,6.45
2022-10-13T18:12:00.274Z,12.07
2022-10-13T18:17:02.338Z,11.23
2022-10-13T18:22:06.921Z,11.43
2022-10-13T18:27:08.957Z,12.23
2022-10-13T18:32:12.290Z,12.32
2022-10-13T18:37:13.886Z,14.48
2022-10-13T18:42:15.558Z,19.92
2022-10-13T18:47:17.253Z,18.45
2022-10-13T18:52:19.480Z,22.23
2022-10-13T18:57:21.663Z,13.63
2022-10-13T19:02:23.847Z,11.93
2022-10-13T19:07:25.538Z,12.00
2022-10-13T19:12:28.432Z,10.27
2022-10-13T19:17:29.982Z,9.85
2022-10-13T19:22:31.956Z,10.00
2022-10-13T19:27:33.552Z,12.40
2022-10-13T19:32:38.241Z,11.88
2022-10-13T19:37:40.042Z,11.27
2022-10-13T19:42:41.722Z,11.88
2022-10-13T19:47:43.292Z,13.05
2022-10-13T19:52:45.103Z,13.15
2022-10-13T19:57:46.686Z,12.50
2022-10-13T20:02:48.342Z,12.93
2022-10-13T20:07:50.027Z,11.85
2022-10-13T20:12:51.835Z,10.07
2022-10-13T20:17:53.485Z,7.80
2022-10-13T20:22:55.447Z,6.55
2022-10-13T20:27:57.108Z,6.38
2022-10-13T20:32:59.016Z,7.18
2022-10-13T20:38:00.901Z,7.55
2022-10-13T20:43:02.544Z,8.32
2022-10-13T20:48:04.178Z,10.45
2022-10-13T20:53:06.584Z,9.90
2022-10-13T20:58:08.295Z,9.23
2022-10-13T21:03:09.882Z,10.57
2022-10-13T21:08:11.523Z,10.45
2022-10-13T21:13:14.534Z,13.18
2022-10-13T21:18:16.913Z,13.18
2022-10-13T21:23:18.622Z,11.77
2022-10-13T21:28:20.635Z,12.38
2022-10-13T21:33:23.219Z,12.23
2022-10-13T21:38:29.034Z,12.68
2022-10-13T21:43:30.770Z,13.45
2022-10-13T21:48:32.316Z,13.13
2022-10-13T21:53:33.887Z,12.55
2022-10-13T21:58:35.917Z,12.38
2022-10-13T22:03:37.747Z,12.25
2022-10-13T22:08:40.920Z,12.18
2022-10-13T22:13:58.705Z,13.90
2022-10-13T22:19:00.828Z,14.73
2022-10-13T22:24:04.919Z,13.40
2022-10-13T22:29:08.134Z,13.20
2022-10-13T22:34:11.466Z,13.75
2022-10-13T22:39:14.219Z,15.77
2022-10-13T22:44:15.913Z,15.18
2022-10-13T22:49:17.753Z,13.93
2022-10-13T22:54:19.460Z,13.93
2022-10-13T22:59:21.094Z,12.50
2022-10-13T23:04:22.662Z,12.95
2022-10-13T23:09:24.229Z,12.13
2022-10-13T23:14:25.911Z,12.07
2022-10-13T23:19:27.548Z,11.63
2022-10-13T23:24:30.487Z,11.75
2022-10-13T23:29:32.091Z,11.43
2022-10-13T23:34:33.866Z,12.57
2022-10-13T23:39:35.535Z,13.25
2022-10-13T23:44:37.197Z,11.45
2022-10-13T23:49:38.794Z,12.32
2022-10-13T23:54:40.430Z,11.80
2022-10-13T23:59:42.020Z,12.32
